TAF Text Data
IDs:
Format:
Raw Decoded Include METAR

Data at: 0229 UTC 19 Oct 2021

KLRD 182320Z 1900/1924 12008KT P6SM SCT250
  FM191700 15012KT P6SM FEW050 BKN250